Time;durP1;ratioP1;P1;durP2;ratioP2;P2;SDS_P1;SDS_P2;PMS_P1;PMS_P2;Temp;Humidity;BMP_temperature;BMP_pressure;BME280_temperature;BME280_humidity;BME280_pressure;Samples;Min_cycle;Max_cycle;Signal;HPM_P1;HPM_P2
2022/06/03 00:01:38;;;;;;;12.85;6.60;;;;;;;22.13;86.73;153218.97;1686565;85;21301;-59
2022/06/03 00:04:46;;;;;;;23.18;7.05;;;;;;;22.12;87.26;153215.02;1673796;85;21507;-60
2022/06/03 00:07:44;;;;;;;21.82;7.72;;;;;;;22.14;87.25;153220.25;1686880;85;21077;-60
2022/06/03 00:10:50;;;;;;;13.68;7.28;;;;;;;22.14;87.25;153220.25;1712615;83;21028;-60
2022/06/03 00:14:04;;;;;;;15.85;6.45;;;;;;;22.13;87.23;153217.63;1746111;82;21065;-60
2022/06/03 00:17:00;;;;;;;18.73;7.22;;;;;;;22.09;86.97;153208.47;1715589;83;21210;-59
2022/06/03 00:19:42;;;;;;;18.25;6.78;;;;;;;22.06;87.06;153199.34;1746270;82;21001;-59
2022/06/03 00:22:21;;;;;;;16.80;6.90;;;;;;;21.98;87.23;153181.00;1715472;83;21490;-59
2022/06/03 00:25:17;;;;;;;15.28;7.08;;;;;;;21.94;87.42;153170.55;1715094;83;21010;-60
2022/06/03 00:28:17;;;;;;;20.32;7.10;;;;;;;21.89;87.60;153157.48;1688413;83;20986;-59
2022/06/03 00:31:28;;;;;;;16.80;7.15;;;;;;;21.85;87.99;153147.03;1715429;83;21510;-60
2022/06/03 00:34:13;;;;;;;22.75;8.53;;;;;;;21.80;88.26;153133.97;1715331;83;21538;-60
2022/06/03 00:36:57;;;;;;;17.62;8.65;;;;;;;21.66;88.84;153099.95;1715674;83;21045;-60
2022/06/03 00:39:54;;;;;;;24.23;7.37;;;;;;;21.57;89.44;153076.39;1715561;83;21582;-59
2022/06/03 00:43:08;;;;;;;20.62;7.37;;;;;;;21.52;89.78;153063.28;1715530;83;21029;-59
2022/06/03 00:45:59;;;;;;;18.00;7.45;;;;;;;21.49;90.24;153055.45;1746456;82;21228;-59
2022/06/03 00:48:43;;;;;;;23.57;8.30;;;;;;;21.49;90.63;153055.45;1715380;83;20922;-59
2022/06/03 00:51:48;;;;;;;22.75;7.33;;;;;;;21.50;90.77;153058.06;1746400;82;21084;-59
2022/06/03 00:54:44;;;;;;;18.12;7.08;;;;;;;21.47;90.79;153051.55;1715527;83;21494;-59
2022/06/03 00:57:40;;;;;;;21.55;8.85;;;;;;;21.41;90.83;153037.16;1746447;82;21092;-60
2022/06/03 01:00:26;;;;;;;21.20;7.78;;;;;;;21.33;91.02;153016.22;1715477;83;21261;-58
2022/06/03 01:03:15;;;;;;;20.72;7.25;;;;;;;21.20;91.26;152982.27;1746266;82;20969;-60
2022/06/03 01:06:16;;;;;;;15.75;7.70;;;;;;;21.07;91.70;152950.88;1721056;82;21080;-61
2022/06/03 01:09:08;;;;;;;22.93;8.25;;;;;;;20.95;92.17;152920.81;1731016;81;21010;-61
2022/06/03 01:11:56;;;;;;;14.63;7.85;;;;;;;20.87;92.62;152901.22;1777530;80;21056;-59
2022/06/03 01:14:59;;;;;;;23.18;8.23;;;;;;;20.84;92.74;152893.38;1766640;80;21240;-60
2022/06/03 01:18:00;;;;;;;15.90;6.53;;;;;;;20.82;92.87;152888.16;1777454;80;21025;-59
2022/06/03 01:20:44;;;;;;;17.98;6.17;;;;;;;20.79;92.30;152880.28;1765888;81;21553;-58
2022/06/03 01:23:49;;;;;;;12.82;5.92;;;;;;;20.85;91.50;152894.70;1776898;80;21043;-58
2022/06/03 01:26:44;;;;;;;;;;;;;;;20.92;90.27;152911.70;1768527;81;21065;-58
2022/06/03 01:30:07;;;;;;;9.00;5.22;;;;;;;20.97;89.17;152926.03;1777589;80;21200;-60
2022/06/03 01:32:49;;;;;;;11.73;5.65;;;;;;;21.01;88.19;152935.20;1714374;83;21423;-60
2022/06/03 01:35:44;;;;;;;12.55;5.50;;;;;;;21.07;87.30;152950.88;1766200;81;21006;-59
2022/06/03 01:38:50;;;;;;;15.65;4.67;;;;;;;21.08;86.46;152952.20;1777753;80;21045;-58
2022/06/03 01:41:52;;;;;;;;;;;;;;;21.12;85.49;152962.66;1780162;80;21076;-59
2022/06/03 01:45:04;;;;;;;11.18;4.75;;;;;;;21.16;84.49;152974.42;1766507;81;21082;-59
2022/06/03 01:48:25;;;;;;;12.78;4.95;;;;;;;21.16;83.77;152974.42;1777453;80;21536;-58
2022/06/03 01:51:00;;;;;;;8.70;4.62;;;;;;;21.16;83.07;152974.42;1766616;81;21139;-58
2022/06/03 01:54:15;;;;;;;8.85;4.22;;;;;;;21.13;82.49;152965.27;1777517;80;21009;-57
2022/06/03 01:56:48;;;;;;;6.00;3.90;;;;;;;21.12;82.32;152963.98;1777573;80;21056;-60
2022/06/03 01:59:39;;;;;;;9.75;4.22;;;;;;;21.12;81.96;152963.98;1777180;80;21230;-58
2022/06/03 02:02:42;;;;;;;12.15;4.87;;;;;;;21.11;81.82;152961.38;1777178;80;21442;-60
2022/06/03 02:05:37;;;;;;;7.30;4.08;;;;;;;21.06;81.89;152946.98;1777113;80;21021;-60
2022/06/03 02:08:36;;;;;;;7.30;4.12;;;;;;;21.04;81.95;152943.05;1771132;80;21403;-58
2022/06/03 02:11:31;;;;;;;5.62;3.85;;;;;;;21.05;81.99;152945.66;1722912;83;21032;-59
2022/06/03 02:14:10;;;;;;;6.67;4.12;;;;;;;21.05;81.83;152945.66;1724344;83;21231;-59
2022/06/03 02:17:07;;;;;;;6.17;3.95;;;;;;;21.02;81.97;152937.81;1724425;83;20997;-60
2022/06/03 02:20:13;;;;;;;8.10;4.35;;;;;;;21.04;81.96;152943.05;1724143;83;21052;-59
2022/06/03 02:23:12;;;;;;;6.92;3.80;;;;;;;21.03;81.63;152941.75;1722316;83;21028;-59
2022/06/03 02:26:09;;;;;;;5.97;4.30;;;;;;;21.04;81.48;152943.05;1724097;83;21522;-59
2022/06/03 02:32:48;;;;;;;8.05;4.30;;;;;;;21.15;80.99;152971.81;1724337;83;21069;-59
2022/06/03 02:35:21;;;;;;;7.83;3.87;;;;;;;21.22;80.94;152987.48;1724019;83;21092;-60
2022/06/03 02:38:30;;;;;;;4.50;3.55;;;;;;;21.28;80.41;153003.16;1722987;83;21705;-58
2022/06/03 02:41:08;;;;;;;4.70;3.60;;;;;;;21.30;80.15;153008.38;1724167;83;21134;-58
2022/06/03 02:44:11;;;;;;;5.78;3.55;;;;;;;21.34;79.85;153018.88;1723844;83;21264;-59
2022/06/03 02:47:29;;;;;;;7.90;3.92;;;;;;;21.41;79.36;153035.83;1678561;83;21048;-58
2022/06/03 02:50:23;;;;;;;5.95;3.40;;;;;;;21.44;79.08;153045.00;1724195;83;21013;-59
2022/06/03 02:53:14;;;;;;;4.53;3.45;;;;;;;21.53;78.55;153065.91;1694293;84;26797;-59
2022/06/03 02:56:02;;;;;;;6.05;3.75;;;;;;;21.60;78.02;153084.23;1725299;80;21203;-59
2022/06/03 02:59:08;;;;;;;4.67;3.27;;;;;;;21.64;77.48;153094.69;1778781;80;20913;-58
2022/06/03 03:02:06;;;;;;;7.50;3.08;;;;;;;21.67;77.23;153102.56;1779004;80;21499;-58
2022/06/03 03:04:56;;;;;;;6.95;3.90;;;;;;;21.75;76.95;153123.47;1778867;80;21088;-59
2022/06/03 03:07:38;;;;;;;4.78;3.75;;;;;;;21.84;76.45;153145.70;1750592;80;21044;-60
2022/06/03 03:10:13;;;;;;;5.08;3.62;;;;;;;21.89;76.38;153158.81;1713829;82;21461;-59
2022/06/03 03:13:20;;;;;;;4.85;3.70;;;;;;;22.00;76.16;153186.28;1693310;84;21557;-60
2022/06/03 03:16:13;;;;;;;8.93;4.03;;;;;;;22.13;75.35;153217.63;1722262;82;21695;-59
2022/06/03 03:19:08;;;;;;;6.85;3.80;;;;;;;22.24;75.17;153245.09;1701927;82;21353;-59
2022/06/03 03:21:50;;;;;;;4.80;3.22;;;;;;;22.37;74.58;153277.78;1722151;83;21578;-59
2022/06/03 03:24:56;;;;;;;9.50;3.65;;;;;;;22.59;73.89;153335.39;1702145;84;21039;-60
2022/06/03 03:27:46;;;;;;;9.00;3.45;;;;;;;22.77;72.76;153379.88;1694218;83;21433;-60
2022/06/03 03:30:40;;;;;;;5.12;3.50;;;;;;;22.89;71.58;153411.30;1701776;83;21031;-60
2022/06/03 03:33:27;;;;;;;8.95;3.27;;;;;;;22.97;70.93;153429.59;1722934;82;21040;-59
2022/06/03 03:36:05;;;;;;;7.25;3.40;;;;;;;23.00;70.57;153437.44;1701925;83;21051;-59
2022/06/03 03:38:54;;;;;;;6.90;3.30;;;;;;;23.07;70.62;153455.75;1722561;82;21112;-60
2022/06/03 03:41:39;;;;;;;5.95;3.10;;;;;;;23.21;70.44;153491.13;1700434;84;21318;-59
2022/06/03 03:44:17;;;;;;;7.67;3.35;;;;;;;23.33;69.89;153521.27;1722548;83;21107;-59
2022/06/03 03:47:37;;;;;;;4.53;3.20;;;;;;;23.38;69.63;153534.34;1701857;82;21492;-59
2022/06/03 03:50:29;;;;;;;8.53;3.27;;;;;;;23.49;69.64;153560.50;1722463;83;21105;-60
2022/06/03 03:53:29;;;;;;;7.22;3.40;;;;;;;23.60;69.04;153590.59;1724996;81;21046;-60
2022/06/03 03:56:49;;;;;;;6.17;2.95;;;;;;;23.55;68.59;153576.23;1720081;82;21273;-60
2022/06/03 03:59:36;;;;;;;6.75;3.27;;;;;;;23.47;68.70;153556.59;1693612;84;20933;-59
2022/06/03 04:02:37;;;;;;;5.08;3.50;;;;;;;23.38;68.97;153534.34;1722369;82;21051;-59
2022/06/03 04:05:47;;;;;;;8.78;3.15;;;;;;;23.34;68.99;153523.88;1724738;83;21089;-60
2022/06/03 04:08:56;;;;;;;8.30;3.62;;;;;;;23.26;69.31;153502.91;1694621;84;21088;-58
2022/06/03 04:11:43;;;;;;;9.30;3.15;;;;;;;23.27;69.82;153505.53;1703474;83;21254;-60
2022/06/03 04:14:38;;;;;;;8.13;3.42;;;;;;;23.38;69.58;153533.02;1703188;84;21115;-59
2022/06/03 04:17:16;;;;;;;6.42;3.12;;;;;;;23.46;69.23;153555.27;1667700;84;21099;-58
2022/06/03 04:20:30;;;;;;;5.03;3.00;;;;;;;23.54;68.97;153573.56;1702956;84;21556;-59
2022/06/03 04:23:21;;;;;;;7.40;3.70;;;;;;;23.59;68.74;153586.70;1703532;84;21084;-59
2022/06/03 04:26:33;;;;;;;9.03;3.20;;;;;;;23.63;68.68;153597.16;1733606;81;21366;-60
2022/06/03 04:29:35;;;;;;;6.87;3.17;;;;;;;23.72;68.42;153619.42;1734270;82;22091;-60
2022/06/03 04:32:27;;;;;;;6.30;3.30;;;;;;;23.81;68.17;153642.97;1734395;82;21085;-61
2022/06/03 04:35:44;;;;;;;4.58;3.10;;;;;;;23.87;68.10;153658.70;1732276;82;21087;-60
2022/06/03 04:38:46;;;;;;;6.58;3.30;;;;;;;23.91;67.89;153667.84;1703492;83;21047;-61
2022/06/03 04:41:51;;;;;;;6.53;3.22;;;;;;;23.93;67.80;153673.08;1703296;84;21296;-60
2022/06/03 04:45:03;;;;;;;7.00;3.17;;;;;;;23.96;67.48;153680.92;1654036;84;21495;-59
2022/06/03 04:47:39;;;;;;;5.17;3.25;;;;;;;23.96;67.03;153679.64;1703351;84;21074;-59
2022/06/03 04:50:47;;;;;;;9.00;3.30;;;;;;;23.98;66.85;153684.88;1702489;84;21143;-59
2022/06/03 04:53:54;;;;;;;7.25;3.62;;;;;;;24.00;67.05;153691.44;1703746;84;21039;-60
2022/06/03 04:56:42;;;;;;;6.65;3.20;;;;;;;24.09;66.41;153712.41;1703731;82;21503;-59
2022/06/03 04:59:48;;;;;;;6.45;3.10;;;;;;;24.02;66.67;153696.72;1626220;84;21099;-58
2022/06/03 05:03:11;;;;;;;4.55;3.08;;;;;;;24.02;66.55;153696.72;1704624;84;21028;-60
2022/06/03 05:06:11;;;;;;;6.62;3.45;;;;;;;23.96;66.80;153679.64;1704813;84;21465;-59
2022/06/03 05:09:29;;;;;;;6.87;3.47;;;;;;;23.93;66.81;153673.08;1696258;84;21028;-60
2022/06/03 05:12:19;;;;;;;9.53;3.35;;;;;;;23.95;66.89;153678.31;1704991;84;21261;-60
2022/06/03 05:15:17;;;;;;;4.65;3.10;;;;;;;23.98;66.30;153684.88;1703961;84;21031;-59
2022/06/03 05:18:28;;;;;;;6.65;3.33;;;;;;;24.05;66.71;153703.23;1705196;84;20990;-60
2022/06/03 05:21:35;;;;;;;6.35;3.37;;;;;;;24.11;65.81;153717.64;1702195;84;21055;-59
2022/06/03 05:24:43;;;;;;;7.25;3.35;;;;;;;24.14;65.73;153725.50;1705080;84;21102;-60
2022/06/03 05:27:33;;;;;;;7.83;3.27;;;;;;;24.20;65.57;153741.19;1705144;84;21288;-60
2022/06/03 05:30:40;;;;;;;7.35;3.50;;;;;;;24.30;65.46;153767.41;1705324;84;20950;-58
2022/06/03 05:33:25;;;;;;;5.45;2.80;;;;;;;24.38;65.32;153785.72;1676906;83;21038;-60
2022/06/03 05:36:06;;;;;;;5.50;3.10;;;;;;;24.45;64.32;153804.09;1761943;79;21050;-59
2022/06/03 05:39:31;;;;;;;9.15;3.08;;;;;;;24.45;64.32;153805.38;1750440;81;21110;-58
2022/06/03 05:42:25;;;;;;;5.92;3.10;;;;;;;24.51;64.41;153819.78;1752720;81;21245;-60
2022/06/03 05:45:29;;;;;;;4.80;2.87;;;;;;;24.63;63.90;153849.91;1766409;81;21056;-61
2022/06/03 05:48:15;;;;;;;5.53;2.90;;;;;;;24.79;63.93;153889.27;1769778;81;21060;-60
2022/06/03 05:51:08;;;;;;;5.62;3.15;;;;;;;24.98;63.57;153939.05;1758273;81;21450;-60
2022/06/03 05:53:55;;;;;;;8.88;3.42;;;;;;;25.21;63.05;153996.69;1728455;82;21091;-59
2022/06/03 05:56:40;;;;;;;5.67;3.37;;;;;;;25.35;62.20;154032.06;1733636;82;21564;-59
2022/06/03 05:59:31;;;;;;;6.45;3.37;;;;;;;25.45;61.60;154058.25;1734480;82;21632;-60
2022/06/03 06:02:32;;;;;;;6.92;3.00;;;;;;;25.53;61.34;154077.95;1733870;82;21048;-59
2022/06/03 06:05:36;;;;;;;6.50;3.30;;;;;;;25.61;60.42;154097.63;1703772;84;21040;-60
2022/06/03 06:08:24;;;;;;;6.25;2.90;;;;;;;25.65;59.87;154108.09;1718488;82;21558;-60
2022/06/03 06:11:12;;;;;;;7.85;2.95;;;;;;;25.67;59.56;154113.33;1714674;82;21854;-60
2022/06/03 06:13:49;;;;;;;7.28;2.95;;;;;;;25.72;59.38;154126.42;1750544;81;21057;-62
2022/06/03 06:16:30;;;;;;;5.53;3.00;;;;;;;25.79;59.27;154142.19;1750458;81;21024;-61
2022/06/03 06:19:04;;;;;;;6.53;2.87;;;;;;;25.84;58.57;154155.28;1760698;81;21473;-60
2022/06/03 06:22:00;;;;;;;7.62;3.08;;;;;;;25.85;58.73;154157.91;1705012;84;21560;-61
2022/06/03 06:24:36;;;;;;;5.97;3.42;;;;;;;25.93;58.68;154178.84;1734592;82;21255;-61
2022/06/03 06:27:28;;;;;;;6.55;3.37;;;;;;;25.96;58.06;154186.70;1774121;80;21059;-59
2022/06/03 06:30:22;;;;;;;9.63;3.10;;;;;;;26.05;58.03;154209.00;1774021;80;21511;-60
2022/06/03 06:33:04;;;;;;;8.80;3.15;;;;;;;26.12;57.38;154226.05;1756546;80;21033;-60
2022/06/03 06:35:56;;;;;;;5.03;2.90;;;;;;;26.08;56.81;154215.56;1765435;81;21039;-61
2022/06/03 06:39:01;;;;;;;3.87;2.80;;;;;;;26.03;57.03;154205.09;1767706;81;21144;-61
2022/06/03 06:41:48;;;;;;;6.55;2.70;;;;;;;26.05;57.20;154207.72;1770596;80;21095;-62
2022/06/03 06:44:44;;;;;;;6.37;2.72;;;;;;;26.10;56.99;154220.81;1734098;82;21056;-59
2022/06/03 06:47:30;;;;;;;5.80;3.47;;;;;;;26.14;57.07;154232.63;1725134;82;21057;-59
2022/06/03 06:50:19;;;;;;;8.35;3.45;;;;;;;26.20;56.76;154247.09;1730853;82;21108;-60
2022/06/03 06:53:14;;;;;;;5.35;2.70;;;;;;;26.28;56.70;154266.72;1709815;82;22428;-60
2022/06/03 06:56:07;;;;;;;8.45;3.22;;;;;;;26.34;56.20;154281.16;1705930;82;21071;-60
2022/06/03 06:58:55;;;;;;;7.78;3.00;;;;;;;26.37;56.21;154290.34;1729671;82;21097;-61
2022/06/03 07:01:26;;;;;;;8.43;3.27;;;;;;;26.47;56.22;154315.27;1728985;82;21071;-61
2022/06/03 07:04:02;;;;;;;8.25;3.25;;;;;;;26.62;56.41;154351.94;1791265;79;21370;-60
2022/06/03 07:06:51;;;;;;;3.70;2.77;;;;;;;26.77;55.32;154391.28;1761850;81;24687;-60
2022/06/03 07:09:48;;;;;;;9.30;3.55;;;;;;;26.79;55.08;154396.53;1769044;81;21498;-61
2022/06/03 07:12:22;;;;;;;10.05;3.90;;;;;;;26.79;55.10;154396.53;1737351;81;21071;-62
2022/06/03 07:15:12;;;;;;;6.10;3.10;;;;;;;26.92;54.87;154428.08;1770473;81;21071;-62
2022/06/03 07:21:08;;;;;;;7.80;3.10;;;;;;;27.11;54.56;154477.91;1768613;81;21145;-62
2022/06/03 07:23:51;;;;;;;6.75;3.20;;;;;;;27.20;54.13;154498.88;1770792;81;21071;-61
2022/06/03 07:26:51;;;;;;;12.23;3.75;;;;;;;27.28;53.92;154519.86;1764421;81;21032;-61
2022/06/03 07:29:39;;;;;;;6.35;3.50;;;;;;;27.36;54.25;154540.88;1769480;80;21583;-60
2022/06/03 07:32:17;;;;;;;8.18;3.80;;;;;;;27.48;53.68;154569.70;1727981;81;21064;-60
2022/06/03 07:34:55;;;;;;;6.70;3.30;;;;;;;27.54;53.60;154585.53;1734250;82;21491;-61
2022/06/03 07:37:29;;;;;;;5.95;3.40;;;;;;;27.64;53.28;154610.47;1733991;82;20956;-60
2022/06/03 07:40:04;;;;;;;8.33;3.17;;;;;;;27.69;52.64;154623.56;1733297;82;21415;-60
2022/06/03 07:43:17;;;;;;;10.50;3.83;;;;;;;27.64;52.42;154611.75;1734352;82;21044;-60
2022/06/03 07:45:53;;;;;;;8.40;3.12;;;;;;;27.58;52.30;154597.30;1732913;82;20954;-60
2022/06/03 07:48:22;;;;;;;7.75;2.80;;;;;;;27.59;52.74;154599.92;1734214;82;21453;-60
2022/06/03 07:51:22;;;;;;;10.65;3.45;;;;;;;27.64;52.37;154610.47;1733909;81;21486;-60
2022/06/03 07:54:06;;;;;;;9.10;3.50;;;;;;;27.70;52.26;154626.19;1716957;82;21020;-60
2022/06/03 07:56:37;;;;;;;7.08;3.60;;;;;;;27.77;51.89;154643.25;1727545;82;21656;-61
2022/06/03 07:59:17;;;;;;;11.63;3.40;;;;;;;27.82;51.38;154657.66;1719008;81;21498;-60
2022/06/03 08:02:06;;;;;;;5.60;3.02;;;;;;;27.78;51.45;154647.16;1715401;83;21146;-61
2022/06/03 08:04:36;;;;;;;12.47;3.33;;;;;;;27.68;50.92;154622.23;1715465;83;21105;-61
2022/06/03 08:12:45;;;;;;;11.65;3.58;;;;;;;27.68;51.30;154622.23;1712924;82;21065;-59
2022/06/03 08:15:17;;;;;;;9.33;2.95;;;;;;;27.81;50.65;154653.75;1746251;82;21229;-59
2022/06/03 08:17:45;;;;;;;5.35;2.87;;;;;;;27.87;50.56;154670.81;1728266;82;20998;-61
2022/06/03 08:20:14;;;;;;;7.03;2.90;;;;;;;27.94;50.49;154687.83;1746528;82;21014;-59
2022/06/03 08:22:41;;;;;;;8.80;3.15;;;;;;;28.00;50.05;154702.28;1715907;82;21559;-59
2022/06/03 08:25:09;;;;;;;6.95;2.87;;;;;;;28.02;49.56;154708.84;1745562;82;21505;-59
2022/06/03 08:27:36;;;;;;;6.42;2.75;;;;;;;28.04;49.70;154712.77;1746554;82;21236;-60
2022/06/03 08:30:08;;;;;;;9.23;2.60;;;;;;;28.09;49.33;154724.58;1746253;82;21112;-61
2022/06/03 08:32:50;;;;;;;7.95;3.10;;;;;;;28.08;48.92;154721.97;1745477;82;21072;-61
2022/06/03 08:35:19;;;;;;;6.87;2.45;;;;;;;28.05;49.08;154715.38;1699698;83;21049;-61
2022/06/03 08:38:13;;;;;;;8.85;2.52;;;;;;;28.07;48.86;154720.63;1745471;82;21427;-61
2022/06/03 08:41:18;;;;;;;7.47;2.42;;;;;;;28.11;48.77;154729.83;1743698;82;21244;-61
2022/06/03 08:44:08;;;;;;;3.87;2.65;;;;;;;28.14;48.78;154737.69;1746425;82;21057;-60
2022/06/03 08:46:53;;;;;;;4.45;2.52;;;;;;;28.20;48.60;154752.19;1665078;85;21307;-60
2022/06/03 08:49:25;;;;;;;5.80;2.37;;;;;;;28.19;48.40;154750.91;1665642;86;21018;-61
2022/06/03 08:51:55;;;;;;;4.97;2.60;;;;;;;28.23;48.63;154761.39;1717277;82;21034;-61
2022/06/03 08:54:30;;;;;;;5.90;2.10;;;;;;;28.28;48.19;154774.50;1720764;82;21265;-60
2022/06/03 08:57:09;;;;;;;5.10;2.42;;;;;;;28.30;48.41;154778.47;1739916;82;21747;-60
2022/06/03 08:59:44;;;;;;;3.55;2.17;;;;;;;28.38;47.93;154798.11;1741148;81;21119;-60
2022/06/03 09:02:25;;;;;;;6.03;2.65;;;;;;;28.33;48.13;154786.34;1713146;83;21931;-61
2022/06/03 09:05:03;;;;;;;4.58;2.05;;;;;;;28.37;48.28;154795.48;1701052;83;21025;-61
2022/06/03 09:07:48;;;;;;;6.92;2.25;;;;;;;28.40;48.33;154803.36;1684913;84;21494;-61
2022/06/03 09:10:27;;;;;;;;;;;;;;;28.35;48.40;154791.58;1710017;83;21117;-60
2022/06/03 09:13:15;;;;;;;7.92;2.70;;;;;;;28.31;48.82;154782.37;1713048;83;20208;-60
2022/06/03 09:15:45;;;;;;;5.75;2.50;;;;;;;28.31;48.76;154782.37;1713065;82;21104;-60
2022/06/03 09:18:34;;;;;;;8.43;2.72;;;;;;;28.42;49.95;154809.94;1714098;82;21049;-59
2022/06/03 09:21:06;;;;;;;4.15;2.35;;;;;;;28.47;50.13;154820.44;1714097;83;21281;-61
2022/06/03 09:23:36;;;;;;;5.40;2.60;;;;;;;28.48;50.91;154824.39;1703873;84;21053;-61
2022/06/03 09:26:03;;;;;;;10.00;2.75;;;;;;;28.52;51.17;154834.88;1706888;84;21583;-60
2022/06/03 09:28:34;;;;;;;3.75;2.33;;;;;;;28.54;51.64;154840.13;1706990;84;21065;-61
2022/06/03 09:31:05;;;;;;;5.55;2.80;;;;;;;28.61;51.22;154857.19;1716289;83;21045;-60
2022/06/03 09:33:33;;;;;;;5.80;2.22;;;;;;;28.54;51.02;154840.13;1714159;82;21120;-62
2022/06/03 09:36:05;;;;;;;7.62;3.58;;;;;;;28.52;51.24;154834.88;1732549;82;21000;-60
2022/06/03 09:38:55;;;;;;;15.58;2.92;;;;;;;28.50;51.12;154829.63;1714114;82;21044;-60
2022/06/03 09:41:26;;;;;;;9.13;2.75;;;;;;;28.44;51.28;154813.89;1732569;82;21132;-62
2022/06/03 09:43:53;;;;;;;9.93;2.60;;;;;;;28.47;51.30;154821.77;1732352;82;21486;-59
2022/06/03 09:46:23;;;;;;;3.50;2.00;;;;;;;28.51;51.16;154832.25;1732374;82;21248;-60
2022/06/03 09:48:50;;;;;;;5.35;2.50;;;;;;;28.60;50.21;154855.86;1732464;82;20938;-60
2022/06/03 09:54:28;;;;;;;7.12;3.05;;;;;;;28.60;50.92;154855.86;1721050;82;21092;-60
2022/06/03 09:57:30;;;;;;;5.37;2.80;;;;;;;28.56;51.00;154844.08;1714092;82;21115;-60
2022/06/03 10:00:14;;;;;;;4.45;2.45;;;;;;;28.45;50.99;154817.81;1753989;81;21330;-61
2022/06/03 10:02:44;;;;;;;4.50;2.62;;;;;;;28.39;51.50;154800.73;1757253;81;21092;-60
2022/06/03 10:05:16;;;;;;;3.77;2.60;;;;;;;28.38;52.18;154799.44;1757192;81;21150;-60
2022/06/03 10:07:45;;;;;;;3.83;2.72;;;;;;;28.43;51.73;154812.56;1757288;81;21012;-60
2022/06/03 10:13:06;;;;;;;16.25;3.92;;;;;;;28.46;51.44;154819.14;1757348;81;21211;-61
2022/06/03 10:15:45;;;;;;;13.72;3.27;;;;;;;28.35;51.70;154790.25;1757562;81;21017;-59
2022/06/03 10:18:21;;;;;;;9.03;3.40;;;;;;;28.37;52.60;154795.48;1749093;81;21084;-60
2022/06/03 10:20:50;;;;;;;5.70;2.67;;;;;;;28.46;52.57;154819.14;1721287;83;20998;-61
2022/06/03 10:23:24;;;;;;;6.75;2.67;;;;;;;28.57;52.33;154847.98;1724269;83;21049;-60
2022/06/03 10:25:52;;;;;;;8.40;2.83;;;;;;;28.61;52.23;154857.19;1726739;83;20941;-60
2022/06/03 10:28:19;;;;;;;5.55;2.80;;;;;;;28.59;52.01;154851.95;1726027;82;21411;-60
2022/06/03 10:31:00;;;;;;;8.48;2.80;;;;;;;28.53;51.80;154836.22;1723460;83;21544;-60
2022/06/03 10:33:28;;;;;;;6.67;2.85;;;;;;;28.48;52.14;154824.39;1697232;84;21056;-60
2022/06/03 10:35:57;;;;;;;7.53;3.02;;;;;;;28.53;51.89;154837.50;1721563;83;21013;-60
2022/06/03 10:38:28;;;;;;;5.85;2.60;;;;;;;28.56;52.04;154844.08;1728455;82;21224;-59
2022/06/03 10:40:56;;;;;;;8.10;2.87;;;;;;;28.54;51.65;154838.84;1720141;83;21039;-59
2022/06/03 10:43:33;;;;;;;6.53;2.40;;;;;;;28.53;51.32;154837.50;1707600;83;21054;-60
2022/06/03 10:46:09;;;;;;;4.97;2.70;;;;;;;28.56;50.85;154845.38;1709995;83;21088;-60
2022/06/03 10:48:36;;;;;;;9.08;3.22;;;;;;;28.57;50.99;154847.98;1711845;82;21097;-60
2022/06/03 11:01:06;;;;;;;4.62;2.70;;;;;;;28.56;51.37;154845.38;1709320;83;21950;-59
2022/06/03 11:02:36;;;;;;;6.17;2.80;;;;;;;28.60;51.88;154855.86;1702729;83;21121;-59
2022/06/03 11:05:23;;;;;;;8.78;3.08;;;;;;;28.60;51.57;154854.58;1695096;83;21316;-59
2022/06/03 11:07:59;;;;;;;4.40;2.95;;;;;;;28.53;51.98;154837.50;1712605;83;20994;-60
2022/06/03 11:10:45;;;;;;;6.03;3.10;;;;;;;28.53;52.42;154837.50;1723260;83;20934;-60
2022/06/03 11:13:27;;;;;;;9.23;3.52;;;;;;;28.63;51.76;154861.11;1723824;82;21000;-61
2022/06/03 11:15:55;;;;;;;8.78;3.35;;;;;;;28.56;51.79;154845.38;1701415;83;21013;-60
2022/06/03 11:18:31;;;;;;;9.88;3.37;;;;;;;28.53;52.03;154837.50;1723884;81;21831;-60
2022/06/03 11:21:04;;;;;;;6.05;2.90;;;;;;;28.57;51.69;154847.98;1723155;83;21093;-59
2022/06/03 11:23:31;;;;;;;9.00;2.55;;;;;;;28.63;51.75;154861.11;1720808;81;21104;-59
2022/06/03 11:26:00;;;;;;;8.90;2.45;;;;;;;28.70;50.99;154879.52;1723549;83;21062;-59
2022/06/03 11:28:38;;;;;;;8.78;2.60;;;;;;;28.76;51.24;154895.25;1723697;83;21009;-59
2022/06/03 11:31:24;;;;;;;5.58;2.62;;;;;;;28.87;51.33;154924.22;1723143;81;21130;-61
2022/06/03 11:34:14;;;;;;;3.65;2.40;;;;;;;28.98;51.67;154951.78;1722580;83;21049;-60
2022/06/03 11:36:55;;;;;;;5.08;2.50;;;;;;;29.05;51.24;154968.81;1723779;83;21048;-60
2022/06/03 11:39:37;;;;;;;6.67;2.60;;;;;;;28.91;52.08;154932.08;1722378;83;21057;-60
2022/06/03 11:42:09;;;;;;;8.90;2.70;;;;;;;28.67;52.39;154871.66;1723710;83;21536;-59
2022/06/03 11:44:47;;;;;;;10.53;2.58;;;;;;;28.48;52.73;154823.05;1723389;82;21774;-59
2022/06/03 11:47:36;;;;;;;4.75;2.50;;;;;;;28.49;53.15;154827.00;1719461;83;21024;-61
2022/06/03 11:50:04;;;;;;;4.70;2.50;;;;;;;28.54;53.70;154840.13;1710783;83;21087;-60
2022/06/03 11:52:31;;;;;;;5.30;2.20;;;;;;;28.47;54.39;154820.44;1707161;83;21052;-60
2022/06/03 11:54:58;;;;;;;6.45;2.50;;;;;;;28.39;53.17;154800.73;1723830;83;21053;-60
2022/06/03 11:57:26;;;;;;;5.20;2.20;;;;;;;28.26;53.65;154769.27;1723698;81;21495;-62
2022/06/03 12:00:09;;;;;;;7.22;2.50;;;;;;;28.20;53.46;154753.53;1737491;80;20998;-60
2022/06/03 12:03:09;;;;;;;5.83;3.02;;;;;;;28.16;53.06;154744.33;1710663;83;21444;-60
2022/06/03 12:05:41;;;;;;;4.45;2.50;;;;;;;28.15;53.32;154740.31;1698059;82;21021;-59
2022/06/03 12:08:28;;;;;;;4.03;2.50;;;;;;;28.07;54.19;154719.34;1691688;83;21568;-61
2022/06/03 12:11:01;;;;;;;6.12;2.60;;;;;;;27.97;54.84;154694.41;1696712;84;21275;-60
2022/06/03 12:13:31;;;;;;;9.60;2.75;;;;;;;27.97;55.06;154695.75;1686848;84;20949;-61
2022/06/03 12:16:03;;;;;;;4.33;2.67;;;;;;;27.97;54.87;154695.75;1698103;84;21056;-61
2022/06/03 12:18:39;;;;;;;8.18;2.45;;;;;;;27.97;55.32;154694.41;1704001;84;21024;-61
2022/06/03 12:21:17;;;;;;;3.58;2.40;;;;;;;27.94;56.11;154687.83;1690835;84;21541;-60
2022/06/03 12:23:50;;;;;;;5.70;2.60;;;;;;;28.00;55.73;154703.61;1695245;84;21173;-60
2022/06/03 12:26:28;;;;;;;3.95;2.20;;;;;;;28.12;55.38;154732.45;1697359;84;21500;-61
2022/06/03 12:29:12;;;;;;;3.47;2.42;;;;;;;28.21;54.79;154756.16;1698902;84;21406;-61
2022/06/03 12:31:44;;;;;;;6.00;2.55;;;;;;;28.38;55.11;154798.11;1694861;84;20981;-60
2022/06/03 12:34:22;;;;;;;4.00;2.30;;;;;;;28.44;54.36;154813.89;1702900;84;21069;-62
2022/06/03 12:37:00;;;;;;;3.65;2.00;;;;;;;28.47;54.09;154821.77;1701465;84;21067;-61
2022/06/03 12:39:40;;;;;;;5.05;2.40;;;;;;;28.54;53.89;154840.13;1695693;84;21044;-60
2022/06/03 12:42:29;;;;;;;4.90;2.42;;;;;;;28.53;54.20;154836.22;1693600;84;21072;-62
2022/06/03 12:45:05;;;;;;;7.70;2.65;;;;;;;28.53;51.97;154837.50;1668150;84;21070;-61
2022/06/03 12:47:38;;;;;;;6.28;2.50;;;;;;;28.68;51.05;154875.56;1694423;84;21434;-61
2022/06/03 12:50:28;;;;;;;5.22;2.40;;;;;;;28.84;51.52;154916.28;1698660;83;21184;-60
2022/06/03 12:53:07;;;;;;;6.10;2.40;;;;;;;28.90;51.82;154930.75;1704110;84;21486;-60
2022/06/03 12:55:36;;;;;;;5.35;2.70;;;;;;;28.90;51.74;154929.45;1697082;84;21061;-60
2022/06/03 12:58:18;;;;;;;3.90;1.95;;;;;;;28.88;52.10;154926.84;1696279;84;21592;-62
2022/06/03 13:00:58;;;;;;;6.92;2.40;;;;;;;28.91;52.03;154932.08;1737603;81;21076;-60
2022/06/03 13:03:30;;;;;;;4.75;2.33;;;;;;;28.93;52.09;154937.33;1754756;81;21171;-61
2022/06/03 13:05:58;;;;;;;4.08;2.20;;;;;;;28.97;52.01;154947.81;1755081;81;21104;-61
2022/06/03 13:08:32;;;;;;;5.45;2.40;;;;;;;28.99;51.54;154953.06;1753991;81;21076;-61
2022/06/03 13:11:07;;;;;;;2.92;2.12;;;;;;;29.04;52.04;154964.89;1751167;81;21040;-61
2022/06/03 13:13:41;;;;;;;6.40;2.45;;;;;;;29.05;52.27;154967.52;1742998;81;21628;-61
2022/06/03 13:16:28;;;;;;;6.62;2.80;;;;;;;29.01;51.64;154959.66;1751096;81;21603;-60
2022/06/03 13:19:17;;;;;;;7.50;2.35;;;;;;;28.93;50.36;154937.33;1748567;81;20957;-60
2022/06/03 13:22:02;;;;;;;4.83;2.27;;;;;;;28.94;49.54;154939.95;1732404;81;21075;-60